Sylvania, Indiana
Current Conditions -  °F | °C
As of 1:55 AM on Monday 22 Dec 2014 (Local Time) from KPRG Reporting Station
Scattered Clouds Scattered Clouds  
Wind Chill: 25°   Ceiling: Unl
Heat Index: 31°   Visibility: 7mi
Dew Point: 29°   Wind: 6mph
Humidity: 92%   Direction: 110°ESE
Pressure: 30.01"   Gusts: NA
Location:  39.8468°N, 87.2662°W
Report Text: KPRG 220655Z AUTO 11005KT 7SM SCT100 00/M02 A3001 RMK AO2 T10051016
Loading
Personal Weather Stations






























Interactive Weather Map New forecast layout! Learn more

10-Day Weather Forecast

Advertisements
Track Severe Weather on mobile